Time;durP1;ratioP1;P1;durP2;ratioP2;P2;SDS_P1;SDS_P2;PMS_P1;PMS_P2;Temp;Humidity;BMP_temperature;BMP_pressure;BME280_temperature;BME280_humidity;BME280_pressure;Samples;Min_cycle;Max_cycle;Signal;HPM_P1;HPM_P2
2023/08/12 00:00:12;;;;;;;23.25;21.02;;;;;;;19.59;58.54;100802.63;4976106;28;96886;-76
2023/08/12 00:02:39;;;;;;;25.83;21.80;;;;;;;19.60;58.58;100806.16;4962532;28;100298;-76
2023/08/12 00:05:06;;;;;;;23.35;21.02;;;;;;;19.61;58.58;100808.72;4990201;28;98881;-77
2023/08/12 00:07:32;;;;;;;29.27;23.20;;;;;;;19.56;58.86;100817.97;4983411;28;96564;-76
2023/08/12 00:09:58;;;;;;;24.63;21.38;;;;;;;19.51;58.90;100807.59;4992527;28;96810;-77
2023/08/12 00:12:24;;;;;;;23.17;20.98;;;;;;;19.43;58.89;100801.91;4993191;28;98928;-76
2023/08/12 00:14:49;;;;;;;25.27;22.65;;;;;;;19.49;58.79;100817.50;4991085;28;98798;-76
2023/08/12 00:17:15;;;;;;;23.50;21.15;;;;;;;19.44;58.71;100815.13;4994405;28;96782;-76
2023/08/12 00:19:40;;;;;;;28.23;20.88;;;;;;;19.41;58.73;100810.00;4987498;28;96855;-76
2023/08/12 00:22:06;;;;;;;23.63;21.13;;;;;;;19.41;58.79;100811.81;4989603;28;98720;-76
2023/08/12 00:24:31;;;;;;;27.55;22.60;;;;;;;19.34;59.01;100803.31;4986716;28;99053;-76
2023/08/12 00:26:57;;;;;;;23.38;21.02;;;;;;;19.32;59.05;100810.56;4985645;28;96772;-76
2023/08/12 00:29:22;;;;;;;23.98;21.70;;;;;;;19.26;59.01;100802.97;4985652;28;97312;-76
2023/08/12 00:31:48;;;;;;;24.42;21.75;;;;;;;19.24;59.29;100799.56;4985170;28;98938;-77
2023/08/12 00:34:14;;;;;;;25.00;21.15;;;;;;;19.19;59.22;100785.66;4978944;28;98907;-76
2023/08/12 00:36:40;;;;;;;23.75;21.45;;;;;;;19.16;59.32;100789.38;4957838;28;97161;-76
2023/08/12 00:39:06;;;;;;;23.42;21.27;;;;;;;19.12;59.38;100793.19;4941792;28;96825;-77
2023/08/12 00:41:31;;;;;;;25.15;22.10;;;;;;;19.12;59.53;100782.53;4973716;28;100246;-77
2023/08/12 00:43:57;;;;;;;24.80;22.48;;;;;;;19.09;59.71;100771.25;4985967;28;98861;-76
2023/08/12 00:46:23;;;;;;;23.98;21.95;;;;;;;19.10;59.88;100773.78;4991895;28;96800;-77
2023/08/12 00:48:48;;;;;;;23.70;21.25;;;;;;;19.08;59.68;100778.38;4974908;28;96810;-76
2023/08/12 00:51:16;;;;;;;23.73;21.65;;;;;;;18.97;59.87;100770.22;4961956;28;98866;-76
2023/08/12 00:53:42;;;;;;;24.23;21.80;;;;;;;18.94;59.94;100763.25;4965758;28;98527;-77
2023/08/12 00:56:07;;;;;;;23.63;21.45;;;;;;;18.92;59.93;100756.31;4968228;28;96822;-77
2023/08/12 00:58:33;;;;;;;25.00;22.55;;;;;;;18.88;60.03;100757.44;4963233;28;97159;-77
2023/08/12 01:00:59;;;;;;;24.00;21.75;;;;;;;18.90;60.09;100766.19;4957312;28;100818;-77
2023/08/12 01:03:26;;;;;;;25.63;20.98;;;;;;;18.84;60.34;100748.81;4956871;28;100810;-77
2023/08/12 01:05:51;;;;;;;23.70;21.25;;;;;;;18.80;60.67;100751.78;4981782;28;97397;-77
2023/08/12 01:08:17;;;;;;;25.20;21.90;;;;;;;18.78;60.40;100757.16;4992066;28;96906;-77
2023/08/12 01:10:48;;;;;;;29.83;21.90;;;;;;;18.60;60.96;100751.16;4991065;28;98643;-77
2023/08/12 01:13:22;;;;;;;24.77;22.40;;;;;;;18.64;60.87;100750.00;4953724;28;100149;-77
2023/08/12 01:15:50;;;;;;;26.00;23.35;;;;;;;18.60;61.25;100751.16;4965443;28;96685;-77
2023/08/12 01:18:16;;;;;;;24.60;22.17;;;;;;;18.61;61.35;100760.81;4976545;28;96825;-77
2023/08/12 01:20:42;;;;;;;24.02;21.73;;;;;;;18.61;61.74;100759.97;4969757;28;99394;-77
2023/08/12 01:23:07;;;;;;;30.48;23.35;;;;;;;18.58;61.99;100763.66;4958240;28;100389;-77
2023/08/12 01:25:33;;;;;;;24.95;22.63;;;;;;;18.57;61.88;100754.00;4967213;28;96855;-77
2023/08/12 01:27:59;;;;;;;25.60;23.05;;;;;;;18.58;61.79;100754.84;4972283;28;96934;-77
2023/08/12 01:30:24;;;;;;;24.27;22.20;;;;;;;18.61;61.72;100758.16;4983217;28;98956;-78
2023/08/12 01:33:08;;;;;;;25.92;23.33;;;;;;;18.57;61.83;100759.31;4974282;28;98275;-77
2023/08/12 01:35:41;;;;;;;26.15;23.85;;;;;;;18.57;61.54;100751.34;4981749;28;96871;-77
2023/08/12 01:38:08;;;;;;;24.90;22.60;;;;;;;18.63;61.57;100758.94;4986372;28;96705;-77
2023/08/12 01:40:35;;;;;;;24.95;22.88;;;;;;;18.58;61.88;100755.69;4973582;28;98884;-77
2023/08/12 01:43:03;;;;;;;26.90;23.15;;;;;;;18.55;61.75;100762.03;4992692;28;98875;-77
2023/08/12 01:45:32;;;;;;;25.70;23.13;;;;;;;18.48;61.85;100766.03;4991256;28;97064;-77
2023/08/12 01:47:57;;;;;;;25.10;22.90;;;;;;;18.47;61.90;100771.44;4992090;28;97305;-77
2023/08/12 01:50:23;;;;;;;25.38;22.75;;;;;;;18.50;61.58;100755.28;4991088;28;98863;-77
2023/08/12 01:52:49;;;;;;;23.83;22.02;;;;;;;18.50;61.82;100757.94;4978204;28;98503;-77
2023/08/12 01:55:14;;;;;;;23.98;21.88;;;;;;;18.31;62.58;100756.41;4973292;28;97345;-77
2023/08/12 01:57:40;;;;;;;25.50;23.15;;;;;;;18.27;62.50;100754.88;4976597;28;99075;-77
2023/08/12 02:00:06;;;;;;;23.85;21.85;;;;;;;18.19;62.83;100754.47;4970725;28;100250;-77
2023/08/12 02:02:42;;;;;;;24.92;22.67;;;;;;;18.17;62.97;100745.72;4973150;28;97066;-77
2023/08/12 02:05:08;;;;;;;24.25;21.80;;;;;;;18.12;63.04;100742.47;4974903;28;96809;-78
2023/08/12 02:07:33;;;;;;;24.67;22.30;;;;;;;18.10;62.98;100739.09;4973009;28;98149;-78
2023/08/12 02:09:59;;;;;;;24.30;22.13;;;;;;;18.07;63.27;100733.94;4985201;28;97722;-77
2023/08/12 02:12:24;;;;;;;25.88;23.27;;;;;;;18.06;63.21;100734.88;4992078;28;97662;-77
2023/08/12 02:14:49;;;;;;;25.25;22.95;;;;;;;17.78;64.05;100720.56;4990673;28;96954;-77
2023/08/12 02:17:15;;;;;;;24.58;22.02;;;;;;;17.99;63.61;100733.53;4972053;28;96867;-78
2023/08/12 02:19:41;;;;;;;25.00;22.67;;;;;;;17.93;63.69;100725.94;4991093;28;98948;-77
2023/08/12 02:22:06;;;;;;;25.88;23.05;;;;;;;17.96;63.35;100729.25;4980153;28;99132;-78
2023/08/12 02:24:32;;;;;;;23.98;21.52;;;;;;;17.99;63.44;100730.88;4989380;28;96605;-77
2023/08/12 02:26:57;;;;;;;23.35;21.48;;;;;;;18.06;63.55;100737.53;4989805;28;97277;-78
2023/08/12 02:29:23;;;;;;;24.42;22.08;;;;;;;18.05;63.53;100736.69;4991872;28;98508;-77
2023/08/12 02:31:48;;;;;;;25.02;22.70;;;;;;;18.06;63.31;100733.09;4973981;28;100226;-78
2023/08/12 02:34:14;;;;;;;23.77;21.85;;;;;;;18.09;63.35;100732.03;4990289;28;97600;-77
2023/08/12 02:36:40;;;;;;;23.98;21.88;;;;;;;18.02;63.30;100736.00;4970345;28;96947;-78
2023/08/12 02:39:06;;;;;;;25.05;22.85;;;;;;;18.03;63.28;100727.09;4989212;28;98868;-77
2023/08/12 02:41:31;;;;;;;24.40;22.40;;;;;;;17.95;63.53;100724.91;4967530;28;100851;-77
2023/08/12 02:43:57;;;;;;;24.77;22.38;;;;;;;17.93;63.50;100726.78;4982240;28;96841;-77
2023/08/12 02:46:24;;;;;;;24.92;22.38;;;;;;;17.86;63.86;100728.94;4992165;28;97002;-78
2023/08/12 02:48:50;;;;;;;23.52;21.25;;;;;;;17.79;63.93;100722.25;4971814;28;99239;-77
2023/08/12 02:51:16;;;;;;;24.40;22.30;;;;;;;17.84;64.04;100732.63;4963697;28;100705;-77
2023/08/12 02:53:41;;;;;;;23.80;21.83;;;;;;;17.81;63.92;100724.84;4973616;28;96772;-77
2023/08/12 02:56:07;;;;;;;23.00;21.25;;;;;;;17.77;64.17;100717.94;4974625;28;96853;-78
2023/08/12 02:58:34;;;;;;;24.45;22.08;;;;;;;17.78;63.93;100720.56;4987915;28;99136;-78
2023/08/12 03:00:59;;;;;;;23.90;21.73;;;;;;;17.63;64.37;100724.06;4988152;28;98758;-78
2023/08/12 03:03:25;;;;;;;24.08;22.30;;;;;;;17.64;64.39;100731.09;4985275;28;96726;-77
2023/08/12 03:05:50;;;;;;;24.08;22.10;;;;;;;17.58;64.34;100726.13;4971263;28;96914;-78
2023/08/12 03:08:16;;;;;;;24.83;22.63;;;;;;;17.66;64.21;100745.13;4985889;28;98732;-78
2023/08/12 03:10:46;;;;;;;24.63;22.38;;;;;;;17.71;64.24;100740.41;4973726;28;99698;-77
2023/08/12 03:13:13;;;;;;;24.58;22.52;;;;;;;17.70;64.22;100741.34;4963412;28;97023;-77
2023/08/12 03:15:42;;;;;;;25.23;22.88;;;;;;;17.68;64.30;100740.56;4986078;28;97558;-77
2023/08/12 03:18:09;;;;;;;25.33;22.73;;;;;;;17.64;64.37;100739.91;4973195;28;100215;-77
2023/08/12 03:20:37;;;;;;;25.55;22.65;;;;;;;17.59;64.62;100733.13;4974027;28;100266;-78
2023/08/12 03:23:02;;;;;;;24.33;22.05;;;;;;;17.63;64.57;100732.03;4970150;28;96892;-77
2023/08/12 03:25:28;;;;;;;24.48;22.20;;;;;;;17.57;64.80;100745.63;4964167;28;97693;-78
2023/08/12 03:27:54;;;;;;;23.80;21.52;;;;;;;17.54;64.71;100729.88;4989557;28;99038;-77
2023/08/12 03:30:21;;;;;;;24.73;22.70;;;;;;;17.62;64.35;100735.63;4973338;28;100215;-77
2023/08/12 03:32:47;;;;;;;24.42;22.15;;;;;;;17.65;64.25;100736.28;4970134;28;96786;-77
2023/08/12 03:35:14;;;;;;;23.90;21.50;;;;;;;17.59;64.16;100726.03;4973543;28;96859;-77
2023/08/12 03:37:39;;;;;;;24.00;22.00;;;;;;;17.58;64.32;100734.94;4970109;28;100392;-78
2023/08/12 03:40:06;;;;;;;24.33;21.95;;;;;;;17.53;64.68;100742.31;4972963;28;99269;-78
2023/08/12 03:42:31;;;;;;;24.27;22.27;;;;;;;17.55;64.76;100740.44;4973248;28;96765;-78
2023/08/12 03:45:00;;;;;;;24.45;22.02;;;;;;;17.44;64.70;100737.50;4967088;28;96930;-78
2023/08/12 03:47:26;;;;;;;23.02;21.08;;;;;;;17.47;64.76;100739.16;4986596;28;98704;-78
2023/08/12 03:49:52;;;;;;;23.55;21.35;;;;;;;17.35;65.35;100733.56;4985409;28;98560;-78
2023/08/12 03:52:17;;;;;;;23.65;21.52;;;;;;;17.41;65.00;100737.69;4975891;28;96862;-78
2023/08/12 03:54:43;;;;;;;23.05;21.15;;;;;;;17.49;64.63;100734.63;4994731;28;96922;-78
2023/08/12 03:57:09;;;;;;;23.95;22.05;;;;;;;17.40;64.85;100728.03;4973450;28;100598;-78
2023/08/12 03:59:34;;;;;;;22.92;21.13;;;;;;;17.48;64.86;100743.50;4985425;28;98600;-78
2023/08/12 04:02:00;;;;;;;23.88;21.52;;;;;;;17.54;64.25;100737.84;4981089;28;96820;-78
2023/08/12 04:04:26;;;;;;;23.27;21.38;;;;;;;17.55;64.25;100735.13;4976015;28;96873;-78
2023/08/12 04:06:51;;;;;;;24.25;21.95;;;;;;;17.53;64.55;100733.47;4990808;28;99293;-78
2023/08/12 04:09:18;;;;;;;24.15;21.48;;;;;;;17.35;65.20;100724.75;4976633;28;100197;-78
2023/08/12 04:11:44;;;;;;;23.20;21.20;;;;;;;17.54;64.61;100733.41;4974234;28;97734;-78
2023/08/12 04:14:11;;;;;;;25.00;22.52;;;;;;;17.44;64.99;100732.22;4989486;28;96846;-78
2023/08/12 04:16:36;;;;;;;24.48;22.42;;;;;;;17.68;64.25;100737.91;4973131;28;99307;-80
2023/08/12 04:19:02;;;;;;;22.27;20.63;;;;;;;17.79;64.00;100737.34;4991029;28;98844;-78
2023/08/12 04:21:28;;;;;;;24.40;22.05;;;;;;;17.83;63.79;100723.81;4965248;28;96909;-78
2023/08/12 04:23:53;;;;;;;22.90;20.98;;;;;;;17.79;63.91;100734.69;4984142;28;96822;-77
2023/08/12 04:26:19;;;;;;;25.15;22.58;;;;;;;17.68;64.33;100727.28;4973166;28;100440;-78
2023/08/12 04:28:45;;;;;;;27.10;22.38;;;;;;;17.96;63.71;100731.91;4975519;28;98486;-78
2023/08/12 04:31:11;;;;;;;26.90;21.67;;;;;;;18.04;63.24;100720.84;4974876;28;97467;-77
2023/08/12 04:33:39;;;;;;;24.42;22.00;;;;;;;18.25;62.79;100716.06;4976253;28;97694;-77
2023/08/12 04:36:05;;;;;;;23.77;21.77;;;;;;;18.32;62.48;100715.63;4990316;28;99320;-77
2023/08/12 04:38:32;;;;;;;23.17;21.15;;;;;;;18.41;62.39;100708.00;4989114;28;98689;-77
2023/08/12 04:40:59;;;;;;;24.17;22.02;;;;;;;18.67;61.78;100711.72;4975483;28;96808;-77
2023/08/12 04:43:25;;;;;;;22.85;20.90;;;;;;;18.63;62.01;100719.06;4953243;28;97169;-77
2023/08/12 04:45:52;;;;;;;25.15;21.63;;;;;;;19.05;61.37;100712.03;4975604;28;100207;-77
2023/08/12 04:48:19;;;;;;;23.38;21.52;;;;;;;19.30;60.29;100713.16;4967468;28;100389;-77
2023/08/12 04:50:44;;;;;;;23.40;21.50;;;;;;;19.03;60.88;100713.09;4981077;28;96925;-77
2023/08/12 04:53:10;;;;;;;23.85;21.90;;;;;;;19.23;60.42;100723.34;4969637;28;97074;-77
2023/08/12 04:55:36;;;;;;;23.98;21.63;;;;;;;19.39;59.87;100715.22;4975339;28;100709;-77
2023/08/12 04:58:02;;;;;;;24.35;22.45;;;;;;;19.53;59.63;100717.84;4975944;28;100213;-77
2023/08/12 05:00:28;;;;;;;24.25;22.23;;;;;;;19.98;58.80;100717.59;4972310;28;97186;-77
2023/08/12 05:02:54;;;;;;;23.65;21.73;;;;;;;20.16;58.17;100713.69;4965615;28;96848;-77
2023/08/12 05:05:19;;;;;;;23.65;21.45;;;;;;;20.45;57.65;100719.69;4975468;28;101256;-77
2023/08/12 05:07:48;;;;;;;23.27;21.48;;;;;;;20.48;57.27;100711.47;4974992;28;100516;-77
2023/08/12 05:10:18;;;;;;;24.42;22.23;;;;;;;20.67;56.63;100723.56;4975620;28;97352;-77
2023/08/12 05:12:44;;;;;;;24.42;22.48;;;;;;;20.63;57.21;100719.41;4992608;28;96904;-77
2023/08/12 05:15:10;;;;;;;23.92;21.92;;;;;;;21.00;56.21;100713.19;4989617;28;98154;-77
2023/08/12 05:17:36;;;;;;;23.80;20.77;;;;;;;21.30;55.31;100716.44;4987903;28;98415;-77
2023/08/12 05:20:03;;;;;;;23.60;21.25;;;;;;;21.36;55.50;100710.63;4975622;28;96729;-77
2023/08/12 05:22:29;;;;;;;23.52;21.05;;;;;;;21.66;54.37;100702.19;4975442;28;96914;-77
2023/08/12 05:24:54;;;;;;;22.98;21.02;;;;;;;22.34;53.16;100698.81;4974804;28;99024;-77
2023/08/12 05:27:20;;;;;;;23.98;20.98;;;;;;;22.60;52.86;100695.91;4992927;28;97930;-77
2023/08/12 05:29:45;;;;;;;23.75;21.70;;;;;;;22.91;51.58;100697.03;4991406;28;96800;-80
2023/08/12 05:32:11;;;;;;;22.88;21.17;;;;;;;24.15;49.15;100684.16;4990569;28;96932;-80
2023/08/12 05:34:36;;;;;;;23.45;21.65;;;;;;;25.20;46.68;100683.13;4986380;28;98940;-80
2023/08/12 05:37:02;;;;;;;22.70;20.90;;;;;;;26.96;43.02;100681.94;4988809;28;98803;-80
2023/08/12 05:39:27;;;;;;;22.45;20.58;;;;;;;29.70;37.86;100677.13;4983748;28;96764;-80
2023/08/12 05:41:53;;;;;;;22.92;21.00;;;;;;;29.37;37.62;100676.22;4986003;28;96852;-80
2023/08/12 05:44:19;;;;;;;23.13;21.13;;;;;;;30.04;36.75;100676.13;4985964;28;99060;-80
2023/08/12 05:46:44;;;;;;;22.80;20.45;;;;;;;32.59;32.86;100672.69;4984744;28;99213;-80
2023/08/12 05:49:10;;;;;;;22.27;20.52;;;;;;;34.23;30.51;100673.84;4978989;28;97078;-80
2023/08/12 05:51:35;;;;;;;22.33;20.63;;;;;;;35.99;28.27;100674.13;4977218;28;96968;-81
2023/08/12 05:54:01;;;;;;;21.60;20.00;;;;;;;36.55;26.92;100669.28;4980999;28;99026;-80
2023/08/12 05:56:26;;;;;;;21.95;20.15;;;;;;;38.18;25.34;100677.00;4981117;28;98357;-80
2023/08/12 05:58:52;;;;;;;20.08;18.67;;;;;;;39.24;24.53;100666.69;4974729;28;96800;-80
2023/08/12 06:01:17;;;;;;;19.83;18.10;;;;;;;37.09;26.25;100663.41;4983505;28;96829;-81
2023/08/12 06:03:43;;;;;;;21.35;19.85;;;;;;;34.48;29.81;100671.50;4988943;28;98625;-80
2023/08/12 06:06:09;;;;;;;20.15;18.55;;;;;;;33.88;29.75;100667.47;4989770;28;98498;-80
2023/08/12 06:08:34;;;;;;;20.30;18.77;;;;;;;35.52;28.34;100664.19;4989121;28;97363;-80
2023/08/12 06:11:00;;;;;;;20.63;19.13;;;;;;;36.44;27.31;100665.28;4988974;28;96910;-81
2023/08/12 06:13:25;;;;;;;21.45;19.58;;;;;;;36.39;27.00;100659.59;4987147;28;99204;-81
2023/08/12 06:15:51;;;;;;;21.15;19.42;;;;;;;37.08;26.34;100667.19;4986191;28;98779;-80
2023/08/12 06:18:17;;;;;;;21.35;19.77;;;;;;;35.48;27.96;100657.47;4985591;28;97251;-81
2023/08/12 06:20:42;;;;;;;21.05;19.30;;;;;;;37.70;25.92;100652.91;4982088;28;97329;-81
2023/08/12 06:23:08;;;;;;;20.52;19.08;;;;;;;40.02;23.29;100654.72;4986508;28;98970;-81
2023/08/12 06:25:35;;;;;;;19.92;18.52;;;;;;;39.35;23.86;100655.78;4982974;28;98781;-81
2023/08/12 06:28:01;;;;;;;21.52;19.77;;;;;;;40.82;22.58;100650.50;4991285;28;96730;-81
2023/08/12 06:30:27;;;;;;;21.77;20.17;;;;;;;41.96;21.40;100644.06;4990733;28;96867;-81
2023/08/12 06:32:52;;;;;;;20.75;19.10;;;;;;;42.17;21.30;100648.75;4985015;28;98745;-81
2023/08/12 06:35:18;;;;;;;20.58;19.17;;;;;;;43.16;20.56;100642.34;4979440;28;98885;-81
2023/08/12 06:37:43;;;;;;;22.05;20.35;;;;;;;42.27;20.85;100648.94;4984085;28;96702;-81
2023/08/12 06:40:09;;;;;;;21.02;19.52;;;;;;;44.29;19.82;100644.06;4985322;28;96874;-81
2023/08/12 06:42:35;;;;;;;20.92;19.25;;;;;;;45.05;18.92;100636.38;4981063;28;99437;-81
2023/08/12 06:45:00;;;;;;;20.98;19.27;;;;;;;44.96;18.68;100644.38;4981295;28;98515;-81
2023/08/12 06:47:27;;;;;;;20.63;19.13;;;;;;;46.09;18.04;100638.94;4966117;28;96820;-81
2023/08/12 06:49:53;;;;;;;20.15;18.40;;;;;;;44.67;18.92;100631.00;4982253;28;96852;-81
2023/08/12 06:52:18;;;;;;;19.83;18.38;;;;;;;47.02;17.34;100631.88;4977498;28;99098;-81
2023/08/12 06:54:44;;;;;;;21.23;19.52;;;;;;;48.53;16.39;100624.41;4974555;28;99037;-81
2023/08/12 06:57:11;;;;;;;20.83;19.23;;;;;;;49.03;16.00;100624.81;4975148;28;97036;-82
2023/08/12 06:59:39;;;;;;;20.88;19.10;;;;;;;48.82;15.85;100623.44;4972964;28;96904;-81
2023/08/12 07:02:06;;;;;;;20.08;18.38;;;;;;;50.08;15.29;100627.19;4987967;28;99083;-82
2023/08/12 07:04:32;;;;;;;19.48;18.08;;;;;;;49.52;15.38;100617.88;4989788;28;98720;-81
2023/08/12 07:06:57;;;;;;;20.10;18.90;;;;;;;50.26;15.02;100623.47;4987810;28;96777;-79
2023/08/12 07:09:23;;;;;;;20.45;18.60;;;;;;;47.53;16.44;100629.56;4988040;28;97031;-79
2023/08/12 07:11:48;;;;;;;19.83;18.30;;;;;;;47.57;16.58;100624.28;4982841;28;97718;-81
2023/08/12 07:14:14;;;;;;;18.88;17.60;;;;;;;48.01;16.32;100623.31;4985695;28;98991;-82
2023/08/12 07:16:39;;;;;;;19.25;18.02;;;;;;;47.75;16.60;100625.50;4985657;28;96677;-81
2023/08/12 07:19:05;;;;;;;19.65;18.02;;;;;;;49.62;15.08;100611.31;4992635;28;97082;-81
2023/08/12 07:21:30;;;;;;;19.60;18.40;;;;;;;48.89;15.93;100615.56;4982703;28;99286;-81
2023/08/12 07:23:56;;;;;;;20.05;18.65;;;;;;;48.48;16.30;100619.69;4985123;28;98848;-81
2023/08/12 07:26:21;;;;;;;19.73;18.33;;;;;;;46.80;17.69;100622.00;4978717;28;97052;-81
2023/08/12 07:28:47;;;;;;;19.05;17.67;;;;;;;49.93;15.39;100619.16;4995366;28;96840;-81
2023/08/12 07:31:13;;;;;;;19.75;18.45;;;;;;;52.03;14.08;100623.47;4991736;28;99299;-82
2023/08/12 07:33:39;;;;;;;20.02;18.70;;;;;;;53.67;13.17;100616.31;4990659;28;98626;-79
2023/08/12 07:36:04;;;;;;;19.70;18.38;;;;;;;53.38;13.03;100611.44;4988097;28;97280;-79
2023/08/12 07:38:30;;;;;;;19.75;18.23;;;;;;;53.77;12.70;100609.53;4989468;28;96933;-79
2023/08/12 07:40:56;;;;;;;19.30;18.10;;;;;;;53.83;12.81;100609.00;4985256;28;98813;-79
2023/08/12 07:43:21;;;;;;;18.90;17.67;;;;;;;56.55;11.55;100606.91;4984740;28;98486;-81
2023/08/12 07:45:53;;;;;;;19.50;18.20;;;;;;;55.43;12.06;100615.66;4983492;28;96779;-81
2023/08/12 07:48:22;;;;;;;18.65;17.50;;;;;;;55.53;12.00;100594.66;4982436;28;97489;-81
2023/08/12 07:50:55;;;;;;;19.77;18.38;;;;;;;57.62;10.43;100595.00;4984617;28;99332;-81
2023/08/12 07:53:20;;;;;;;20.23;18.70;;;;;;;55.79;11.58;100595.19;4983542;28;98418;-81
2023/08/12 07:55:46;;;;;;;19.73;18.42;;;;;;;56.41;10.73;100597.97;4977854;28;96825;-79
2023/08/12 07:58:12;;;;;;;20.67;19.27;;;;;;;56.51;10.96;100591.06;4976322;28;96873;-80
2023/08/12 08:00:37;;;;;;;19.25;18.02;;;;;;;56.69;11.26;100593.22;4980435;28;98842;-81
2023/08/12 08:03:03;;;;;;;19.73;18.33;;;;;;;56.23;11.41;100584.19;4993667;28;98454;-81
2023/08/12 08:05:28;;;;;;;18.83;17.73;;;;;;;56.47;10.62;100577.69;4994316;28;96890;-82
2023/08/12 08:07:54;;;;;;;20.05;18.75;;;;;;;55.30;11.26;100591.47;4994239;28;96954;-82
2023/08/12 08:10:19;;;;;;;19.92;18.63;;;;;;;57.03;10.37;100574.09;4990325;28;98762;-81
2023/08/12 08:12:45;;;;;;;19.50;18.25;;;;;;;56.72;10.40;100578.44;4989646;28;98483;-81
2023/08/12 08:15:10;;;;;;;19.25;17.75;;;;;;;56.03;10.70;100576.66;4977038;28;97574;-81
2023/08/12 08:17:36;;;;;;;19.50;18.10;;;;;;;54.84;11.74;100571.72;4994194;28;96851;-81
2023/08/12 08:20:02;;;;;;;19.30;17.90;;;;;;;55.85;10.63;100575.25;4988621;28;99213;-81
2023/08/12 08:22:28;;;;;;;20.63;19.27;;;;;;;57.08;10.56;100568.19;4987032;28;98758;-81
2023/08/12 08:24:54;;;;;;;20.60;19.23;;;;;;;59.28;9.37;100567.22;4976116;28;96791;-81
2023/08/12 08:27:19;;;;;;;19.90;18.70;;;;;;;58.90;9.94;100579.41;4985460;28;97288;-81
2023/08/12 08:29:45;;;;;;;20.60;19.10;;;;;;;59.26;8.83;100558.28;4991594;28;99503;-81
2023/08/12 08:32:10;;;;;;;20.50;19.20;;;;;;;59.05;9.54;100569.19;4991524;28;98364;-81
2023/08/12 08:34:36;;;;;;;21.10;19.80;;;;;;;58.77;9.77;100563.78;4987655;28;97411;-81
2023/08/12 08:37:01;;;;;;;21.13;19.83;;;;;;;59.36;9.25;100562.50;4990576;28;96806;-81
2023/08/12 08:39:26;;;;;;;21.38;20.02;;;;;;;54.76;11.28;100564.19;4989041;28;98718;-81
2023/08/12 08:41:53;;;;;;;23.27;21.77;;;;;;;54.42;11.37;100566.09;4993176;28;98454;-81
2023/08/12 08:44:19;;;;;;;;;;;;;;;54.49;10.82;100571.16;4993778;28;96954;-81
2023/08/12 08:46:45;;;;;;;22.10;20.63;;;;;;;56.04;10.31;100559.44;4970792;28;97177;-81
2023/08/12 08:49:12;;;;;;;21.80;19.98;;;;;;;52.99;11.85;100554.41;4989564;28;98847;-81
2023/08/12 08:51:37;;;;;;;20.23;19.00;;;;;;;54.57;11.66;100563.84;4973067;28;98615;-81
2023/08/12 08:54:06;;;;;;;20.00;18.60;;;;;;;56.21;10.71;100564.03;4989871;28;96747;-81
2023/08/12 08:56:35;;;;;;;20.60;19.30;;;;;;;51.04;12.87;100552.81;4980686;28;96910;-81
2023/08/12 08:59:01;;;;;;;21.42;19.92;;;;;;;53.73;11.60;100556.06;4993296;28;98903;-81
2023/08/12 09:01:28;;;;;;;21.00;19.40;;;;;;;51.89;13.10;100552.78;4982175;28;98327;-81
2023/08/12 09:03:54;;;;;;;;;;;;;;;51.33;12.53;100557.94;4976974;28;96925;-81
2023/08/12 09:06:21;;;;;;;20.75;19.40;;;;;;;49.90;13.67;100556.41;4968499;28;97348;-81
2023/08/12 09:08:48;;;;;;;20.52;19.05;;;;;;;47.07;15.57;100562.44;4992682;28;98929;-80
2023/08/12 09:11:15;;;;;;;20.63;19.25;;;;;;;48.88;14.79;100558.19;4992116;28;98832;-81
2023/08/12 09:13:40;;;;;;;20.53;18.87;;;;;;;47.83;15.56;100545.06;4975339;28;96962;-81
2023/08/12 09:16:06;;;;;;;19.83;18.42;;;;;;;47.13;16.03;100547.41;4990465;28;96861;-81
2023/08/12 09:18:32;;;;;;;19.63;18.13;;;;;;;42.30;19.33;100559.34;4989758;28;99574;-82
2023/08/12 09:20:57;;;;;;;19.67;18.30;;;;;;;41.67;20.54;100550.44;4992448;28;98568;-81
2023/08/12 09:23:23;;;;;;;19.13;17.88;;;;;;;40.06;21.71;100548.75;4975156;28;96792;-80
2023/08/12 09:25:48;;;;;;;19.10;17.90;;;;;;;39.32;22.90;100535.47;4993723;28;96832;-80
2023/08/12 09:28:15;;;;;;;19.20;17.70;;;;;;;36.68;24.96;100540.72;4991947;28;98963;-80
2023/08/12 09:30:40;;;;;;;19.35;18.15;;;;;;;36.49;25.71;100548.78;4991580;28;98600;-79
2023/08/12 09:33:07;;;;;;;18.58;17.38;;;;;;;35.01;27.68;100541.94;4989023;28;96876;-80
2023/08/12 09:35:34;;;;;;;20.45;19.10;;;;;;;34.28;28.25;100547.97;4989760;28;96737;-80
2023/08/12 09:38:10;;;;;;;19.35;18.15;;;;;;;34.33;28.44;100550.09;4982988;28;99187;-79
2023/08/12 09:40:36;;;;;;;19.48;17.88;;;;;;;33.77;29.00;100546.38;4987241;28;98454;-79
2023/08/12 09:43:02;;;;;;;19.40;17.95;;;;;;;32.87;29.82;100545.09;4968613;28;97658;-79
2023/08/12 09:45:28;;;;;;;19.50;18.20;;;;;;;32.98;30.08;100542.88;4984052;28;96861;-79
2023/08/12 09:47:57;;;;;;;19.70;18.38;;;;;;;32.59;31.01;100547.69;4978415;28;99404;-79
2023/08/12 09:50:25;;;;;;;19.63;17.90;;;;;;;32.72;31.11;100540.72;4982048;28;98275;-79
2023/08/12 09:52:52;;;;;;;19.63;18.27;;;;;;;32.10;31.12;100542.84;4976113;28;97265;-79
2023/08/12 09:55:19;;;;;;;19.55;18.33;;;;;;;31.80;31.64;100542.81;4978354;28;97187;-79
2023/08/12 09:57:48;;;;;;;19.70;18.25;;;;;;;31.60;31.96;100538.94;4973986;28;98554;-79
2023/08/12 10:00:18;;;;;;;19.80;18.20;;;;;;;31.38;32.64;100535.22;4987135;28;98577;-79
2023/08/12 10:02:45;;;;;;;20.45;18.70;;;;;;;30.98;33.04;100536.34;4963849;28;96833;-79
2023/08/12 10:05:27;;;;;;;20.48;18.80;;;;;;;30.52;33.48;100526.28;4991188;28;96891;-79
2023/08/12 10:07:53;;;;;;;18.98;17.67;;;;;;;30.87;33.66;100529.50;4992241;28;99309;-79
2023/08/12 10:10:19;;;;;;;18.85;17.65;;;;;;;31.10;33.60;100524.09;4989355;28;98603;-79
2023/08/12 10:12:45;;;;;;;19.55;18.05;;;;;;;30.71;33.50;100532.25;4970944;28;97237;-79
2023/08/12 10:15:11;;;;;;;18.85;17.60;;;;;;;30.84;33.52;100524.44;4988652;28;97309;-79
2023/08/12 10:17:38;;;;;;;19.17;17.77;;;;;;;30.79;33.54;100522.25;4991300;28;99065;-79
2023/08/12 10:20:04;;;;;;;20.17;18.35;;;;;;;30.92;33.62;100521.66;4992079;28;98739;-79
2023/08/12 10:22:30;;;;;;;18.50;17.30;;;;;;;30.72;33.55;100523.09;4991299;28;97186;-79
2023/08/12 10:25:02;;;;;;;19.35;17.85;;;;;;;30.37;34.42;100533.44;4992047;28;96977;-79
2023/08/12 10:27:28;;;;;;;19.63;18.23;;;;;;;30.67;34.10;100519.06;4992154;28;98738;-79
2023/08/12 10:29:56;;;;;;;19.42;17.92;;;;;;;30.81;33.85;100514.78;4989292;28;98424;-79
2023/08/12 10:32:22;;;;;;;19.88;18.35;;;;;;;30.53;34.20;100510.88;4991722;28;96703;-79
2023/08/12 10:34:55;;;;;;;19.25;17.95;;;;;;;30.57;34.55;100520.31;4971245;28;98182;-79
2023/08/12 10:37:20;;;;;;;18.67;17.30;;;;;;;30.34;34.69;100509.41;4987793;28;99251;-79
2023/08/12 10:39:46;;;;;;;19.08;17.75;;;;;;;30.12;35.16;100511.03;4988080;28;98984;-79
2023/08/12 10:42:11;;;;;;;19.50;18.20;;;;;;;30.23;34.58;100503.38;4973712;28;97302;-79
2023/08/12 10:44:43;;;;;;;19.35;18.05;;;;;;;30.22;35.12;100496.31;4979461;28;97011;-79
2023/08/12 10:47:12;;;;;;;20.40;19.00;;;;;;;30.40;35.56;100500.63;4959558;28;98976;-79
2023/08/12 10:49:39;;;;;;;20.10;18.70;;;;;;;30.25;35.37;100492.38;4976872;28;98873;-79
2023/08/12 10:52:04;;;;;;;19.27;17.88;;;;;;;30.18;34.74;100488.66;4971742;28;97520;-79
2023/08/12 10:54:30;;;;;;;19.52;18.33;;;;;;;30.10;35.42;100485.97;4965333;28;97367;-79
2023/08/12 10:57:11;;;;;;;18.77;17.38;;;;;;;29.95;35.05;100480.47;4990346;28;99152;-79
2023/08/12 10:59:45;;;;;;;19.27;17.70;;;;;;;30.01;35.44;100488.72;4973047;28;98863;-79
2023/08/12 11:02:18;;;;;;;19.58;18.08;;;;;;;29.87;36.01;100486.72;4976099;28;97143;-79
2023/08/12 11:04:44;;;;;;;18.90;17.60;;;;;;;30.00;35.35;100487.03;4992019;28;96957;-79